sensor_id;sensor_type;location;lat;lon;timestamp;temperature;humidity
10846;DHT22;5476;51.540;7.186;2023-06-26T00:04:03;27.40;91.40
10846;DHT22;5476;51.540;7.186;2023-06-26T00:06:59;27.50;91.80
10846;DHT22;5476;51.540;7.186;2023-06-26T00:10:03;27.40;92.50
10846;DHT22;5476;51.540;7.186;2023-06-26T00:13:14;27.40;91.70
10846;DHT22;5476;51.540;7.186;2023-06-26T00:15:58;27.30;92.20
10846;DHT22;5476;51.540;7.186;2023-06-26T00:18:53;27.50;91.70
10846;DHT22;5476;51.540;7.186;2023-06-26T00:21:48;27.10;91.00
10846;DHT22;5476;51.540;7.186;2023-06-26T00:24:38;26.90;91.10
10846;DHT22;5476;51.540;7.186;2023-06-26T00:30:15;27.10;91.50
10846;DHT22;5476;51.540;7.186;2023-06-26T00:33:01;26.80;91.30
10846;DHT22;5476;51.540;7.186;2023-06-26T00:35:39;26.90;91.20
10846;DHT22;5476;51.540;7.186;2023-06-26T00:38:19;26.70;91.50
10846;DHT22;5476;51.540;7.186;2023-06-26T00:41:05;26.70;91.50
10846;DHT22;5476;51.540;7.186;2023-06-26T00:46:42;26.60;91.80
10846;DHT22;5476;51.540;7.186;2023-06-26T00:49:32;26.60;91.90
10846;DHT22;5476;51.540;7.186;2023-06-26T00:52:39;26.50;91.60
10846;DHT22;5476;51.540;7.186;2023-06-26T00:55:35;26.40;91.70
10846;DHT22;5476;51.540;7.186;2023-06-26T00:58:12;26.50;92.00
10846;DHT22;5476;51.540;7.186;2023-06-26T01:01:02;26.50;92.10
10846;DHT22;5476;51.540;7.186;2023-06-26T01:04:09;26.50;91.80
10846;DHT22;5476;51.540;7.186;2023-06-26T01:10:16;26.30;92.50
10846;DHT22;5476;51.540;7.186;2023-06-26T01:13:12;26.40;93.10
10846;DHT22;5476;51.540;7.186;2023-06-26T01:16:09;26.30;92.90
10846;DHT22;5476;51.540;7.186;2023-06-26T01:18:52;26.50;93.00
10846;DHT22;5476;51.540;7.186;2023-06-26T01:21:55;26.40;93.00
10846;DHT22;5476;51.540;7.186;2023-06-26T01:28:56;26.20;93.60
10846;DHT22;5476;51.540;7.186;2023-06-26T01:31:35;27.80;93.70
10846;DHT22;5476;51.540;7.186;2023-06-26T01:34:30;26.10;93.50
10846;DHT22;5476;51.540;7.186;2023-06-26T01:37:17;22.50;92.10
10846;DHT22;5476;51.540;7.186;2023-06-26T01:39:52;23.30;92.80
10846;DHT22;5476;51.540;7.186;2023-06-26T01:45:45;22.60;92.80
10846;DHT22;5476;51.540;7.186;2023-06-26T01:48:30;26.00;94.40
10846;DHT22;5476;51.540;7.186;2023-06-26T01:51:06;25.90;94.90
10846;DHT22;5476;51.540;7.186;2023-06-26T01:54:25;25.90;95.40
10846;DHT22;5476;51.540;7.186;2023-06-26T01:57:25;26.90;95.10
10846;DHT22;5476;51.540;7.186;2023-06-26T02:00:18;25.80;95.60
10846;DHT22;5476;51.540;7.186;2023-06-26T02:06:01;25.80;95.60
10846;DHT22;5476;51.540;7.186;2023-06-26T02:08:48;25.70;95.70
10846;DHT22;5476;51.540;7.186;2023-06-26T02:11:29;25.70;95.60
10846;DHT22;5476;51.540;7.186;2023-06-26T02:14:15;25.70;96.00
10846;DHT22;5476;51.540;7.186;2023-06-26T02:16:59;25.70;95.70
10846;DHT22;5476;51.540;7.186;2023-06-26T02:19:40;23.30;94.60
10846;DHT22;5476;51.540;7.186;2023-06-26T02:22:23;25.60;95.50
10846;DHT22;5476;51.540;7.186;2023-06-26T02:25:07;25.60;95.90
10846;DHT22;5476;51.540;7.186;2023-06-26T02:27:40;25.50;95.90
10846;DHT22;5476;51.540;7.186;2023-06-26T02:30:36;25.40;96.80
10846;DHT22;5476;51.540;7.186;2023-06-26T02:33:24;25.40;96.40
10846;DHT22;5476;51.540;7.186;2023-06-26T02:36:05;25.40;96.40
10846;DHT22;5476;51.540;7.186;2023-06-26T02:38:53;25.40;96.40
10846;DHT22;5476;51.540;7.186;2023-06-26T02:41:44;25.40;97.10
10846;DHT22;5476;51.540;7.186;2023-06-26T02:44:24;25.40;97.50
10846;DHT22;5476;51.540;7.186;2023-06-26T02:46:59;25.50;97.80
10846;DHT22;5476;51.540;7.186;2023-06-26T02:49:40;25.40;97.60
10846;DHT22;5476;51.540;7.186;2023-06-26T02:52:18;25.40;97.80
10846;DHT22;5476;51.540;7.186;2023-06-26T02:57:55;25.30;98.70
10846;DHT22;5476;51.540;7.186;2023-06-26T03:00:42;25.30;99.50
10846;DHT22;5476;51.540;7.186;2023-06-26T03:03:43;25.20;99.60
10846;DHT22;5476;51.540;7.186;2023-06-26T03:12:18;25.10;99.20
10846;DHT22;5476;51.540;7.186;2023-06-26T03:15:21;25.10;99.20
10846;DHT22;5476;51.540;7.186;2023-06-26T03:18:27;25.10;99.30
10846;DHT22;5476;51.540;7.186;2023-06-26T03:21:08;25.10;99.40
10846;DHT22;5476;51.540;7.186;2023-06-26T03:23:53;25.10;99.90
10846;DHT22;5476;51.540;7.186;2023-06-26T03:26:48;25.10;99.90
10846;DHT22;5476;51.540;7.186;2023-06-26T03:29:37;25.00;99.90
10846;DHT22;5476;51.540;7.186;2023-06-26T03:35:56;24.90;99.90
10846;DHT22;5476;51.540;7.186;2023-06-26T03:38:56;24.80;99.90
10846;DHT22;5476;51.540;7.186;2023-06-26T03:44:50;24.50;99.90
10846;DHT22;5476;51.540;7.186;2023-06-26T03:47:28;24.50;99.90
10846;DHT22;5476;51.540;7.186;2023-06-26T03:50:01;24.50;99.90
10846;DHT22;5476;51.540;7.186;2023-06-26T03:52:41;24.40;99.90
10846;DHT22;5476;51.540;7.186;2023-06-26T03:55:17;24.40;99.90
10846;DHT22;5476;51.540;7.186;2023-06-26T03:57:56;24.50;99.90
10846;DHT22;5476;51.540;7.186;2023-06-26T04:03:04;24.50;99.90
10846;DHT22;5476;51.540;7.186;2023-06-26T04:05:45;24.40;99.90
10846;DHT22;5476;51.540;7.186;2023-06-26T04:08:23;24.30;99.90
10846;DHT22;5476;51.540;7.186;2023-06-26T04:10:59;24.30;99.90
10846;DHT22;5476;51.540;7.186;2023-06-26T04:13:34;24.30;99.90
10846;DHT22;5476;51.540;7.186;2023-06-26T04:16:17;24.30;99.90
10846;DHT22;5476;51.540;7.186;2023-06-26T04:18:56;24.20;99.90
10846;DHT22;5476;51.540;7.186;2023-06-26T04:21:34;25.50;99.90
10846;DHT22;5476;51.540;7.186;2023-06-26T04:24:08;24.20;99.90
10846;DHT22;5476;51.540;7.186;2023-06-26T04:26:43;24.30;99.90
10846;DHT22;5476;51.540;7.186;2023-06-26T04:29:21;24.20;99.90
10846;DHT22;5476;51.540;7.186;2023-06-26T04:34:35;24.30;99.90
10846;DHT22;5476;51.540;7.186;2023-06-26T04:37:16;24.10;99.90
10846;DHT22;5476;51.540;7.186;2023-06-26T04:40:16;24.00;99.90
10846;DHT22;5476;51.540;7.186;2023-06-26T04:42:51;23.90;99.90
10846;DHT22;5476;51.540;7.186;2023-06-26T04:48:16;24.00;99.90
10846;DHT22;5476;51.540;7.186;2023-06-26T04:50:59;27.70;99.90
10846;DHT22;5476;51.540;7.186;2023-06-26T04:54:01;24.00;99.90
10846;DHT22;5476;51.540;7.186;2023-06-26T04:56:49;24.00;99.90
10846;DHT22;5476;51.540;7.186;2023-06-26T05:00:17;24.10;99.90
10846;DHT22;5476;51.540;7.186;2023-06-26T05:03:18;27.70;99.90
10846;DHT22;5476;51.540;7.186;2023-06-26T05:06:05;23.90;99.90
10846;DHT22;5476;51.540;7.186;2023-06-26T05:08:50;23.90;99.90
10846;DHT22;5476;51.540;7.186;2023-06-26T05:11:32;24.00;99.90
10846;DHT22;5476;51.540;7.186;2023-06-26T05:14:33;24.00;99.90
10846;DHT22;5476;51.540;7.186;2023-06-26T05:17:18;24.00;99.90
10846;DHT22;5476;51.540;7.186;2023-06-26T05:19:57;24.00;99.90
10846;DHT22;5476;51.540;7.186;2023-06-26T05:22:44;24.00;99.90
10846;DHT22;5476;51.540;7.186;2023-06-26T05:25:41;24.00;99.90
10846;DHT22;5476;51.540;7.186;2023-06-26T05:31:26;24.00;99.90
10846;DHT22;5476;51.540;7.186;2023-06-26T05:34:06;24.10;99.90
10846;DHT22;5476;51.540;7.186;2023-06-26T05:36:41;24.20;99.90
10846;DHT22;5476;51.540;7.186;2023-06-26T05:39:14;24.20;99.90
10846;DHT22;5476;51.540;7.186;2023-06-26T05:41:43;24.20;99.90
10846;DHT22;5476;51.540;7.186;2023-06-26T05:44:11;24.20;99.90
10846;DHT22;5476;51.540;7.186;2023-06-26T05:46:38;24.10;99.90
10846;DHT22;5476;51.540;7.186;2023-06-26T05:49:09;24.10;99.90
10846;DHT22;5476;51.540;7.186;2023-06-26T05:51:37;24.10;99.90
10846;DHT22;5476;51.540;7.186;2023-06-26T05:54:07;24.00;99.90
10846;DHT22;5476;51.540;7.186;2023-06-26T05:56:35;24.10;99.90
10846;DHT22;5476;51.540;7.186;2023-06-26T05:59:06;24.10;99.90
10846;DHT22;5476;51.540;7.186;2023-06-26T06:01:37;24.20;99.90
10846;DHT22;5476;51.540;7.186;2023-06-26T06:04:05;24.30;99.90
10846;DHT22;5476;51.540;7.186;2023-06-26T06:06:35;24.20;99.90
10846;DHT22;5476;51.540;7.186;2023-06-26T06:09:14;24.10;99.90
10846;DHT22;5476;51.540;7.186;2023-06-26T06:14:10;24.10;99.90
10846;DHT22;5476;51.540;7.186;2023-06-26T06:16:40;24.20;99.90
10846;DHT22;5476;51.540;7.186;2023-06-26T06:21:41;24.20;99.90
10846;DHT22;5476;51.540;7.186;2023-06-26T06:24:16;24.20;99.90
10846;DHT22;5476;51.540;7.186;2023-06-26T06:26:47;24.20;99.90
10846;DHT22;5476;51.540;7.186;2023-06-26T06:29:18;24.30;99.90
10846;DHT22;5476;51.540;7.186;2023-06-26T06:31:46;24.40;99.90
10846;DHT22;5476;51.540;7.186;2023-06-26T06:34:16;24.40;99.90
10846;DHT22;5476;51.540;7.186;2023-06-26T06:36:49;24.40;99.90
10846;DHT22;5476;51.540;7.186;2023-06-26T06:39:21;24.50;99.90
10846;DHT22;5476;51.540;7.186;2023-06-26T06:41:52;24.50;99.90
10846;DHT22;5476;51.540;7.186;2023-06-26T06:44:22;24.50;99.90
10846;DHT22;5476;51.540;7.186;2023-06-26T06:46:52;24.30;99.90
10846;DHT22;5476;51.540;7.186;2023-06-26T06:49:20;24.10;99.90
10846;DHT22;5476;51.540;7.186;2023-06-26T06:51:56;24.00;99.90
10846;DHT22;5476;51.540;7.186;2023-06-26T06:54:30;23.90;99.90
10846;DHT22;5476;51.540;7.186;2023-06-26T06:57:07;23.80;99.90
10846;DHT22;5476;51.540;7.186;2023-06-26T06:59:34;23.90;99.90
10846;DHT22;5476;51.540;7.186;2023-06-26T07:02:02;23.90;99.90
10846;DHT22;5476;51.540;7.186;2023-06-26T07:04:30;23.90;99.90
10846;DHT22;5476;51.540;7.186;2023-06-26T07:06:58;23.80;99.90
10846;DHT22;5476;51.540;7.186;2023-06-26T07:11:57;23.80;99.90
10846;DHT22;5476;51.540;7.186;2023-06-26T07:14:24;23.90;99.90
10846;DHT22;5476;51.540;7.186;2023-06-26T07:16:52;23.80;99.90
10846;DHT22;5476;51.540;7.186;2023-06-26T07:19:19;23.80;99.90
10846;DHT22;5476;51.540;7.186;2023-06-26T07:29:10;24.00;99.90
10846;DHT22;5476;51.540;7.186;2023-06-26T07:31:38;23.90;99.90
10846;DHT22;5476;51.540;7.186;2023-06-26T07:34:06;24.00;99.90
10846;DHT22;5476;51.540;7.186;2023-06-26T07:39:00;23.90;99.90
10846;DHT22;5476;51.540;7.186;2023-06-26T07:41:28;24.00;99.90
10846;DHT22;5476;51.540;7.186;2023-06-26T07:43:58;24.10;99.90
10846;DHT22;5476;51.540;7.186;2023-06-26T07:46:27;24.20;99.90
10846;DHT22;5476;51.540;7.186;2023-06-26T07:48:54;24.30;99.90
10846;DHT22;5476;51.540;7.186;2023-06-26T07:56:17;24.50;99.90
10846;DHT22;5476;51.540;7.186;2023-06-26T07:58:45;24.50;99.90
10846;DHT22;5476;51.540;7.186;2023-06-26T08:01:13;24.50;99.90
10846;DHT22;5476;51.540;7.186;2023-06-26T08:03:41;24.60;99.90
10846;DHT22;5476;51.540;7.186;2023-06-26T08:08:36;24.50;99.90
10846;DHT22;5476;51.540;7.186;2023-06-26T08:11:04;24.40;99.90
10846;DHT22;5476;51.540;7.186;2023-06-26T08:13:31;24.30;99.90
10846;DHT22;5476;51.540;7.186;2023-06-26T08:15:58;24.30;99.90
10846;DHT22;5476;51.540;7.186;2023-06-26T08:18:26;24.30;99.90
10846;DHT22;5476;51.540;7.186;2023-06-26T08:20:56;24.30;99.90
10846;DHT22;5476;51.540;7.186;2023-06-26T08:23:23;24.40;99.90
10846;DHT22;5476;51.540;7.186;2023-06-26T08:25:51;24.50;99.90
10846;DHT22;5476;51.540;7.186;2023-06-26T08:28:19;24.60;99.90
10846;DHT22;5476;51.540;7.186;2023-06-26T08:30:47;24.80;99.90
10846;DHT22;5476;51.540;7.186;2023-06-26T08:33:14;24.80;99.90
10846;DHT22;5476;51.540;7.186;2023-06-26T08:35:44;24.80;99.90
10846;DHT22;5476;51.540;7.186;2023-06-26T08:38:13;24.70;99.90
10846;DHT22;5476;51.540;7.186;2023-06-26T08:43:08;24.60;99.90
10846;DHT22;5476;51.540;7.186;2023-06-26T08:45:36;24.70;99.90
10846;DHT22;5476;51.540;7.186;2023-06-26T08:48:07;24.70;99.90
10846;DHT22;5476;51.540;7.186;2023-06-26T08:50:38;24.70;99.90
10846;DHT22;5476;51.540;7.186;2023-06-26T08:53:13;24.70;99.90
10846;DHT22;5476;51.540;7.186;2023-06-26T08:55:50;24.80;99.90
10846;DHT22;5476;51.540;7.186;2023-06-26T08:58:22;24.80;99.90
10846;DHT22;5476;51.540;7.186;2023-06-26T09:01:08;24.90;99.90
10846;DHT22;5476;51.540;7.186;2023-06-26T09:03:41;24.70;99.90
10846;DHT22;5476;51.540;7.186;2023-06-26T09:06:12;24.60;99.90
10846;DHT22;5476;51.540;7.186;2023-06-26T09:08:40;24.60;99.90
10846;DHT22;5476;51.540;7.186;2023-06-26T09:11:09;24.70;99.90
10846;DHT22;5476;51.540;7.186;2023-06-26T09:16:08;24.80;99.90
10846;DHT22;5476;51.540;7.186;2023-06-26T09:18:41;24.80;99.90
10846;DHT22;5476;51.540;7.186;2023-06-26T09:21:09;24.90;99.90
10846;DHT22;5476;51.540;7.186;2023-06-26T09:23:39;24.90;99.90
10846;DHT22;5476;51.540;7.186;2023-06-26T09:26:11;25.00;99.90
10846;DHT22;5476;51.540;7.186;2023-06-26T09:28:43;25.20;99.90
10846;DHT22;5476;51.540;7.186;2023-06-26T09:33:51;25.50;99.90
10846;DHT22;5476;51.540;7.186;2023-06-26T09:36:35;25.40;99.90
10846;DHT22;5476;51.540;7.186;2023-06-26T09:39:09;25.50;99.90
10846;DHT22;5476;51.540;7.186;2023-06-26T09:41:53;25.50;99.90
10846;DHT22;5476;51.540;7.186;2023-06-26T09:44:28;25.40;99.90
10846;DHT22;5476;51.540;7.186;2023-06-26T09:46:58;25.40;99.90
10846;DHT22;5476;51.540;7.186;2023-06-26T09:51:54;25.50;99.90
10846;DHT22;5476;51.540;7.186;2023-06-26T09:54:30;25.50;99.90
10846;DHT22;5476;51.540;7.186;2023-06-26T09:57:08;25.60;99.90
10846;DHT22;5476;51.540;7.186;2023-06-26T09:59:41;25.70;99.90
10846;DHT22;5476;51.540;7.186;2023-06-26T10:04:38;25.90;99.90
10846;DHT22;5476;51.540;7.186;2023-06-26T10:07:11;25.90;99.90
10846;DHT22;5476;51.540;7.186;2023-06-26T10:09:44;25.80;99.90
10846;DHT22;5476;51.540;7.186;2023-06-26T10:12:19;25.70;99.90
10846;DHT22;5476;51.540;7.186;2023-06-26T10:14:53;25.70;99.90
10846;DHT22;5476;51.540;7.186;2023-06-26T10:17:21;25.70;99.90
10846;DHT22;5476;51.540;7.186;2023-06-26T10:19:55;25.80;99.90
10846;DHT22;5476;51.540;7.186;2023-06-26T10:22:37;25.70;99.90
10846;DHT22;5476;51.540;7.186;2023-06-26T10:27:42;25.70;99.90
10846;DHT22;5476;51.540;7.186;2023-06-26T10:30:14;25.70;99.90
10846;DHT22;5476;51.540;7.186;2023-06-26T10:32:47;25.60;99.90
10846;DHT22;5476;51.540;7.186;2023-06-26T10:35:20;25.60;99.90
10846;DHT22;5476;51.540;7.186;2023-06-26T10:37:54;25.60;99.90
10846;DHT22;5476;51.540;7.186;2023-06-26T10:40:41;25.80;99.90
10846;DHT22;5476;51.540;7.186;2023-06-26T10:43:30;25.80;99.90
10846;DHT22;5476;51.540;7.186;2023-06-26T10:45:58;25.90;99.90
10846;DHT22;5476;51.540;7.186;2023-06-26T10:48:29;26.00;99.90
10846;DHT22;5476;51.540;7.186;2023-06-26T10:53:25;26.30;99.60
10846;DHT22;5476;51.540;7.186;2023-06-26T10:55:56;26.40;98.20
10846;DHT22;5476;51.540;7.186;2023-06-26T10:58:32;26.60;97.70
10846;DHT22;5476;51.540;7.186;2023-06-26T11:01:14;26.70;96.80
10846;DHT22;5476;51.540;7.186;2023-06-26T11:03:43;26.70;96.10
10846;DHT22;5476;51.540;7.186;2023-06-26T11:08:45;26.40;97.90
10846;DHT22;5476;51.540;7.186;2023-06-26T11:13:41;26.10;99.90
10846;DHT22;5476;51.540;7.186;2023-06-26T11:16:08;25.90;99.90
10846;DHT22;5476;51.540;7.186;2023-06-26T11:18:35;25.80;99.90
10846;DHT22;5476;51.540;7.186;2023-06-26T11:21:07;25.60;99.90
10846;DHT22;5476;51.540;7.186;2023-06-26T11:23:36;25.70;99.90
10846;DHT22;5476;51.540;7.186;2023-06-26T11:26:14;25.40;99.90
10846;DHT22;5476;51.540;7.186;2023-06-26T11:28:47;25.50;99.90
10846;DHT22;5476;51.540;7.186;2023-06-26T11:31:25;25.50;99.90
10846;DHT22;5476;51.540;7.186;2023-06-26T11:33:53;25.80;99.40
10846;DHT22;5476;51.540;7.186;2023-06-26T11:36:19;26.20;99.60
10846;DHT22;5476;51.540;7.186;2023-06-26T11:38:53;26.50;97.30
10846;DHT22;5476;51.540;7.186;2023-06-26T11:43:49;26.70;93.20
10846;DHT22;5476;51.540;7.186;2023-06-26T11:46:17;26.70;91.70
10846;DHT22;5476;51.540;7.186;2023-06-26T11:48:44;26.70;91.00
10846;DHT22;5476;51.540;7.186;2023-06-26T11:51:12;26.70;89.40
10846;DHT22;5476;51.540;7.186;2023-06-26T11:53:40;26.60;89.10
10846;DHT22;5476;51.540;7.186;2023-06-26T11:56:08;26.60;89.80
10846;DHT22;5476;51.540;7.186;2023-06-26T11:58:35;26.40;87.90
10846;DHT22;5476;51.540;7.186;2023-06-26T12:01:04;26.50;88.00
10846;DHT22;5476;51.540;7.186;2023-06-26T12:03:32;26.50;87.30
10846;DHT22;5476;51.540;7.186;2023-06-26T12:05:59;26.50;89.20
10846;DHT22;5476;51.540;7.186;2023-06-26T12:08:29;26.60;89.30
10846;DHT22;5476;51.540;7.186;2023-06-26T12:10:56;26.60;90.10
10846;DHT22;5476;51.540;7.186;2023-06-26T12:13:23;27.00;85.00
10846;DHT22;5476;51.540;7.186;2023-06-26T12:15:51;27.00;85.50
10846;DHT22;5476;51.540;7.186;2023-06-26T12:18:19;27.00;80.80
10846;DHT22;5476;51.540;7.186;2023-06-26T12:20:46;27.00;81.40
10846;DHT22;5476;51.540;7.186;2023-06-26T12:23:13;26.60;76.90
10846;DHT22;5476;51.540;7.186;2023-06-26T12:25:40;26.60;77.50
10846;DHT22;5476;51.540;7.186;2023-06-26T12:28:16;26.60;77.00
10846;DHT22;5476;51.540;7.186;2023-06-26T12:30:46;26.80;75.30
10846;DHT22;5476;51.540;7.186;2023-06-26T12:33:14;26.80;75.70
10846;DHT22;5476;51.540;7.186;2023-06-26T12:35:42;26.80;74.20
10846;DHT22;5476;51.540;7.186;2023-06-26T12:38:09;26.90;74.60
10846;DHT22;5476;51.540;7.186;2023-06-26T12:40:45;26.80;72.70
10846;DHT22;5476;51.540;7.186;2023-06-26T12:43:22;26.90;72.80
10846;DHT22;5476;51.540;7.186;2023-06-26T12:45:48;27.10;72.50
10846;DHT22;5476;51.540;7.186;2023-06-26T12:48:15;27.30;70.70
10846;DHT22;5476;51.540;7.186;2023-06-26T12:50:47;27.40;69.30
10846;DHT22;5476;51.540;7.186;2023-06-26T12:53:16;27.60;68.40
10846;DHT22;5476;51.540;7.186;2023-06-26T12:55:43;28.00;68.90
10846;DHT22;5476;51.540;7.186;2023-06-26T12:58:09;28.20;67.00
10846;DHT22;5476;51.540;7.186;2023-06-26T13:00:36;28.40;65.90
10846;DHT22;5476;51.540;7.186;2023-06-26T13:03:04;28.40;65.80
10846;DHT22;5476;51.540;7.186;2023-06-26T13:05:31;28.10;63.80
10846;DHT22;5476;51.540;7.186;2023-06-26T13:07:59;28.00;65.30
10846;DHT22;5476;51.540;7.186;2023-06-26T13:10:26;28.00;65.60
10846;DHT22;5476;51.540;7.186;2023-06-26T13:12:54;28.00;66.60
10846;DHT22;5476;51.540;7.186;2023-06-26T13:15:21;28.00;67.10
10846;DHT22;5476;51.540;7.186;2023-06-26T13:17:48;28.30;67.10
10846;DHT22;5476;51.540;7.186;2023-06-26T13:20:15;28.10;64.30
10846;DHT22;5476;51.540;7.186;2023-06-26T13:22:42;28.40;64.90
10846;DHT22;5476;51.540;7.186;2023-06-26T13:25:10;28.50;63.70
10846;DHT22;5476;51.540;7.186;2023-06-26T13:27:37;28.50;62.60
10846;DHT22;5476;51.540;7.186;2023-06-26T13:30:05;28.30;61.00
10846;DHT22;5476;51.540;7.186;2023-06-26T13:32:32;28.30;61.60
10846;DHT22;5476;51.540;7.186;2023-06-26T13:34:59;28.40;60.30
10846;DHT22;5476;51.540;7.186;2023-06-26T13:37:26;28.40;59.80
10846;DHT22;5476;51.540;7.186;2023-06-26T13:39:52;28.10;59.30
10846;DHT22;5476;51.540;7.186;2023-06-26T13:42:21;28.00;58.90
10846;DHT22;5476;51.540;7.186;2023-06-26T13:44:48;28.20;59.40
10846;DHT22;5476;51.540;7.186;2023-06-26T13:47:15;28.20;57.50
10846;DHT22;5476;51.540;7.186;2023-06-26T13:49:42;28.20;56.50
10846;DHT22;5476;51.540;7.186;2023-06-26T13:52:09;28.30;55.60
10846;DHT22;5476;51.540;7.186;2023-06-26T13:54:36;28.40;55.00
10846;DHT22;5476;51.540;7.186;2023-06-26T13:57:06;28.50;55.10
10846;DHT22;5476;51.540;7.186;2023-06-26T13:59:36;28.50;54.20
10846;DHT22;5476;51.540;7.186;2023-06-26T14:02:04;28.50;55.10
10846;DHT22;5476;51.540;7.186;2023-06-26T14:04:31;28.50;55.50
10846;DHT22;5476;51.540;7.186;2023-06-26T14:06:58;28.50;55.40
10846;DHT22;5476;51.540;7.186;2023-06-26T14:09:25;28.50;56.40
10846;DHT22;5476;51.540;7.186;2023-06-26T14:11:52;28.40;55.90
10846;DHT22;5476;51.540;7.186;2023-06-26T14:14:19;28.50;55.60
10846;DHT22;5476;51.540;7.186;2023-06-26T14:16:48;28.30;55.50
10846;DHT22;5476;51.540;7.186;2023-06-26T14:19:15;28.20;56.10
10846;DHT22;5476;51.540;7.186;2023-06-26T14:21:44;28.10;56.40
10846;DHT22;5476;51.540;7.186;2023-06-26T14:24:11;28.10;56.00
10846;DHT22;5476;51.540;7.186;2023-06-26T14:26:38;28.20;55.50
10846;DHT22;5476;51.540;7.186;2023-06-26T14:29:04;28.30;55.20
10846;DHT22;5476;51.540;7.186;2023-06-26T14:31:31;28.20;54.70
10846;DHT22;5476;51.540;7.186;2023-06-26T14:34:00;28.30;54.90
10846;DHT22;5476;51.540;7.186;2023-06-26T14:36:28;28.30;55.30
10846;DHT22;5476;51.540;7.186;2023-06-26T14:38:56;28.30;55.90
10846;DHT22;5476;51.540;7.186;2023-06-26T14:41:24;28.40;55.60
10846;DHT22;5476;51.540;7.186;2023-06-26T14:43:51;28.40;55.30
10846;DHT22;5476;51.540;7.186;2023-06-26T14:46:19;28.30;55.40
10846;DHT22;5476;51.540;7.186;2023-06-26T14:48:45;28.10;55.50
10846;DHT22;5476;51.540;7.186;2023-06-26T14:51:14;28.10;57.90
10846;DHT22;5476;51.540;7.186;2023-06-26T14:53:41;28.10;59.00
10846;DHT22;5476;51.540;7.186;2023-06-26T14:56:07;28.00;60.10
10846;DHT22;5476;51.540;7.186;2023-06-26T14:58:34;27.90;60.90
10846;DHT22;5476;51.540;7.186;2023-06-26T15:01:01;27.70;61.20
10846;DHT22;5476;51.540;7.186;2023-06-26T15:03:28;27.60;61.80
10846;DHT22;5476;51.540;7.186;2023-06-26T15:05:55;27.60;62.20
10846;DHT22;5476;51.540;7.186;2023-06-26T15:08:23;27.40;62.40
10846;DHT22;5476;51.540;7.186;2023-06-26T15:10:50;27.30;62.40
10846;DHT22;5476;51.540;7.186;2023-06-26T15:13:17;27.30;63.10
10846;DHT22;5476;51.540;7.186;2023-06-26T15:15:44;27.40;62.70
10846;DHT22;5476;51.540;7.186;2023-06-26T15:18:11;27.50;63.60
10846;DHT22;5476;51.540;7.186;2023-06-26T15:20:37;27.50;62.90
10846;DHT22;5476;51.540;7.186;2023-06-26T15:23:04;27.50;63.30
10846;DHT22;5476;51.540;7.186;2023-06-26T15:25:32;27.10;64.00
10846;DHT22;5476;51.540;7.186;2023-06-26T15:28:02;27.10;64.40
10846;DHT22;5476;51.540;7.186;2023-06-26T15:30:29;27.20;64.20
10846;DHT22;5476;51.540;7.186;2023-06-26T15:32:56;27.20;64.00
10846;DHT22;5476;51.540;7.186;2023-06-26T15:35:23;27.20;64.00
10846;DHT22;5476;51.540;7.186;2023-06-26T15:37:50;27.30;64.10
10846;DHT22;5476;51.540;7.186;2023-06-26T15:40:17;27.30;64.10
10846;DHT22;5476;51.540;7.186;2023-06-26T15:42:48;27.20;64.00
10846;DHT22;5476;51.540;7.186;2023-06-26T15:45:16;27.00;63.60
10846;DHT22;5476;51.540;7.186;2023-06-26T15:47:44;26.80;64.60
10846;DHT22;5476;51.540;7.186;2023-06-26T15:50:11;26.50;63.80
10846;DHT22;5476;51.540;7.186;2023-06-26T15:52:38;26.40;64.20
10846;DHT22;5476;51.540;7.186;2023-06-26T15:55:05;26.40;64.60
10846;DHT22;5476;51.540;7.186;2023-06-26T15:57:33;26.30;64.60
10846;DHT22;5476;51.540;7.186;2023-06-26T16:00:02;26.10;64.60
10846;DHT22;5476;51.540;7.186;2023-06-26T16:02:29;25.60;64.30
10846;DHT22;5476;51.540;7.186;2023-06-26T16:04:56;25.70;65.00
10846;DHT22;5476;51.540;7.186;2023-06-26T16:07:23;25.70;65.30
10846;DHT22;5476;51.540;7.186;2023-06-26T16:09:50;25.50;64.60
10846;DHT22;5476;51.540;7.186;2023-06-26T16:12:17;25.50;65.50
10846;DHT22;5476;51.540;7.186;2023-06-26T16:14:44;25.50;65.40
10846;DHT22;5476;51.540;7.186;2023-06-26T16:17:12;25.50;65.80
10846;DHT22;5476;51.540;7.186;2023-06-26T16:19:39;25.40;65.80
10846;DHT22;5476;51.540;7.186;2023-06-26T16:22:07;25.30;66.00
10846;DHT22;5476;51.540;7.186;2023-06-26T16:27:01;25.20;66.50
10846;DHT22;5476;51.540;7.186;2023-06-26T16:31:55;25.10;66.80
10846;DHT22;5476;51.540;7.186;2023-06-26T16:34:24;25.10;67.20
10846;DHT22;5476;51.540;7.186;2023-06-26T16:36:51;25.00;67.30
10846;DHT22;5476;51.540;7.186;2023-06-26T16:41:46;24.80;67.30
10846;DHT22;5476;51.540;7.186;2023-06-26T16:44:19;24.70;67.80
10846;DHT22;5476;51.540;7.186;2023-06-26T16:46:49;24.70;68.40
10846;DHT22;5476;51.540;7.186;2023-06-26T16:49:16;24.70;68.70
10846;DHT22;5476;51.540;7.186;2023-06-26T16:51:44;24.70;68.30
10846;DHT22;5476;51.540;7.186;2023-06-26T16:54:11;24.70;68.60
10846;DHT22;5476;51.540;7.186;2023-06-26T16:56:38;24.70;69.20
10846;DHT22;5476;51.540;7.186;2023-06-26T16:59:10;24.50;68.50
10846;DHT22;5476;51.540;7.186;2023-06-26T17:01:37;24.40;68.60
10846;DHT22;5476;51.540;7.186;2023-06-26T17:04:04;24.40;68.90
10846;DHT22;5476;51.540;7.186;2023-06-26T17:06:32;24.40;67.40
10846;DHT22;5476;51.540;7.186;2023-06-26T17:09:00;24.50;67.40
10846;DHT22;5476;51.540;7.186;2023-06-26T17:11:27;24.50;67.50
10846;DHT22;5476;51.540;7.186;2023-06-26T17:13:54;24.50;68.00
10846;DHT22;5476;51.540;7.186;2023-06-26T17:16:33;24.50;67.90
10846;DHT22;5476;51.540;7.186;2023-06-26T17:19:09;24.50;68.20
10846;DHT22;5476;51.540;7.186;2023-06-26T17:21:36;24.60;68.30
10846;DHT22;5476;51.540;7.186;2023-06-26T17:24:05;24.50;67.40
10846;DHT22;5476;51.540;7.186;2023-06-26T17:26:32;24.50;67.60
10846;DHT22;5476;51.540;7.186;2023-06-26T17:28:59;24.50;67.40
10846;DHT22;5476;51.540;7.186;2023-06-26T17:41:20;24.50;67.40
10846;DHT22;5476;51.540;7.186;2023-06-26T17:48:42;24.40;67.00
10846;DHT22;5476;51.540;7.186;2023-06-26T17:56:04;24.50;67.30
10846;DHT22;5476;51.540;7.186;2023-06-26T17:58:33;24.60;67.50
10846;DHT22;5476;51.540;7.186;2023-06-26T18:13:16;24.50;66.60
10846;DHT22;5476;51.540;7.186;2023-06-26T18:15:44;24.60;66.90
10846;DHT22;5476;51.540;7.186;2023-06-26T18:25:33;24.40;64.50
10846;DHT22;5476;51.540;7.186;2023-06-26T18:32:55;24.40;64.90
10846;DHT22;5476;51.540;7.186;2023-06-26T18:40:17;24.40;64.80
10846;DHT22;5476;51.540;7.186;2023-06-26T18:42:44;24.30;65.30
10846;DHT22;5476;51.540;7.186;2023-06-26T18:50:28;24.10;67.00
10846;DHT22;5476;51.540;7.186;2023-06-26T19:00:16;24.00;68.50
10846;DHT22;5476;51.540;7.186;2023-06-26T19:02:44;23.90;69.10
10846;DHT22;5476;51.540;7.186;2023-06-26T19:07:41;23.70;70.30
10846;DHT22;5476;51.540;7.186;2023-06-26T19:10:09;23.60;70.90
10846;DHT22;5476;51.540;7.186;2023-06-26T19:15:10;23.70;71.80
10846;DHT22;5476;51.540;7.186;2023-06-26T19:20:05;23.50;72.00
10846;DHT22;5476;51.540;7.186;2023-06-26T19:25:01;23.50;72.90